首页
METAR-TAF:

METAR-TAF

机场 :

Frederick Municipal Airport

弗雷德里克, 马里兰州, 美国

纬度: 39-25-03N, 经度: 077-22-28W, 海拔: 92米

当前天气观测

该预报发布于25分钟前的04:25 UTC
静风
温度 8°C
湿度 100%
气压 1012 hPa
能見度: 2.4公里
阴天层高于300英尺

METAR: KFDK 260425Z AUTO 00000KT 1 1/2SM OVC003 08/08 A2988 RMK AO2

时间: 23:50 (04:50 UTC)


TAF: 丢失

超过4000个机场的气象观测和天气预报(METAR&TAF报告)。

可查询的气象台以黄色和红色小点在地图上表示。

将鼠标移到小点上方,可查看气象台名称。

然后点击查看天气观测和预报。

如需切换地图:点击带黑十字的绿色按钮放大地图;点击带横线的绿色按钮缩小地图;或者点击绿色箭头查看邻近地区的地图。


METAR-TAF: